sensor_id;sensor_type;location;lat;lon;timestamp;temperature;humidity
27266;DHT22;14766;51.380;13.762;2023-12-28T00:02:20;9.90;59.50
27266;DHT22;14766;51.380;13.762;2023-12-28T00:04:47;9.90;59.10
27266;DHT22;14766;51.380;13.762;2023-12-28T00:07:14;9.90;58.90
27266;DHT22;14766;51.380;13.762;2023-12-28T00:09:41;9.90;58.80
27266;DHT22;14766;51.380;13.762;2023-12-28T00:12:09;9.90;58.50
27266;DHT22;14766;51.380;13.762;2023-12-28T00:14:38;9.90;58.20
27266;DHT22;14766;51.380;13.762;2023-12-28T00:17:05;10.00;57.90
27266;DHT22;14766;51.380;13.762;2023-12-28T00:19:33;10.00;57.70
27266;DHT22;14766;51.380;13.762;2023-12-28T00:22:00;10.00;57.60
27266;DHT22;14766;51.380;13.762;2023-12-28T00:24:27;10.00;57.50
27266;DHT22;14766;51.380;13.762;2023-12-28T00:26:54;10.00;57.50
27266;DHT22;14766;51.380;13.762;2023-12-28T00:29:23;10.10;57.30
27266;DHT22;14766;51.380;13.762;2023-12-28T00:31:50;10.10;57.20
27266;DHT22;14766;51.380;13.762;2023-12-28T00:34:17;10.10;57.00
27266;DHT22;14766;51.380;13.762;2023-12-28T00:36:44;10.10;56.90
27266;DHT22;14766;51.380;13.762;2023-12-28T00:39:11;10.20;56.80
27266;DHT22;14766;51.380;13.762;2023-12-28T00:41:39;10.20;56.30
27266;DHT22;14766;51.380;13.762;2023-12-28T00:44:06;10.20;56.20
27266;DHT22;14766;51.380;13.762;2023-12-28T00:46:36;10.20;56.10
27266;DHT22;14766;51.380;13.762;2023-12-28T00:49:05;10.30;56.00
27266;DHT22;14766;51.380;13.762;2023-12-28T00:51:33;10.30;56.00
27266;DHT22;14766;51.380;13.762;2023-12-28T00:54:00;10.30;55.50
27266;DHT22;14766;51.380;13.762;2023-12-28T00:56:27;10.30;55.10
27266;DHT22;14766;51.380;13.762;2023-12-28T00:58:54;10.40;55.00
27266;DHT22;14766;51.380;13.762;2023-12-28T01:01:21;10.40;54.60
27266;DHT22;14766;51.380;13.762;2023-12-28T01:03:49;10.40;54.40
27266;DHT22;14766;51.380;13.762;2023-12-28T01:06:17;10.40;54.40
27266;DHT22;14766;51.380;13.762;2023-12-28T01:08:44;10.40;54.50
27266;DHT22;14766;51.380;13.762;2023-12-28T01:11:11;10.40;54.10
27266;DHT22;14766;51.380;13.762;2023-12-28T01:13:40;10.40;53.80
27266;DHT22;14766;51.380;13.762;2023-12-28T01:16:08;10.40;53.80
27266;DHT22;14766;51.380;13.762;2023-12-28T01:18:35;10.40;53.70
27266;DHT22;14766;51.380;13.762;2023-12-28T01:21:03;10.40;53.50
27266;DHT22;14766;51.380;13.762;2023-12-28T01:23:31;10.40;53.30
27266;DHT22;14766;51.380;13.762;2023-12-28T01:25:59;10.40;53.70
27266;DHT22;14766;51.380;13.762;2023-12-28T01:28:27;10.40;53.40
27266;DHT22;14766;51.380;13.762;2023-12-28T01:30:54;10.40;52.90
27266;DHT22;14766;51.380;13.762;2023-12-28T01:33:21;10.40;52.80
27266;DHT22;14766;51.380;13.762;2023-12-28T01:35:48;10.40;52.80
27266;DHT22;14766;51.380;13.762;2023-12-28T01:38:15;10.50;52.70
27266;DHT22;14766;51.380;13.762;2023-12-28T01:40:45;10.40;52.50
27266;DHT22;14766;51.380;13.762;2023-12-28T01:43:14;10.50;52.50
27266;DHT22;14766;51.380;13.762;2023-12-28T01:45:42;10.50;52.40
27266;DHT22;14766;51.380;13.762;2023-12-28T01:48:09;10.50;52.50
27266;DHT22;14766;51.380;13.762;2023-12-28T01:50:37;10.50;51.60
27266;DHT22;14766;51.380;13.762;2023-12-28T01:53:05;10.60;51.70
27266;DHT22;14766;51.380;13.762;2023-12-28T01:55:34;10.60;51.60
27266;DHT22;14766;51.380;13.762;2023-12-28T01:58:01;10.60;51.30
27266;DHT22;14766;51.380;13.762;2023-12-28T02:00:29;10.60;51.00
27266;DHT22;14766;51.380;13.762;2023-12-28T02:02:59;10.60;50.80
27266;DHT22;14766;51.380;13.762;2023-12-28T02:05:27;10.60;50.90
27266;DHT22;14766;51.380;13.762;2023-12-28T02:07:54;10.70;50.70
27266;DHT22;14766;51.380;13.762;2023-12-28T02:10:45;10.70;51.00
27266;DHT22;14766;51.380;13.762;2023-12-28T02:13:13;10.80;50.40
27266;DHT22;14766;51.380;13.762;2023-12-28T02:15:41;10.80;50.40
27266;DHT22;14766;51.380;13.762;2023-12-28T02:18:12;10.80;50.20
27266;DHT22;14766;51.380;13.762;2023-12-28T02:20:43;10.80;50.10
27266;DHT22;14766;51.380;13.762;2023-12-28T02:23:11;10.90;50.30
27266;DHT22;14766;51.380;13.762;2023-12-28T02:25:39;10.90;50.30
27266;DHT22;14766;51.380;13.762;2023-12-28T02:28:06;10.90;50.10
27266;DHT22;14766;51.380;13.762;2023-12-28T02:30:34;10.90;50.20
27266;DHT22;14766;51.380;13.762;2023-12-28T02:33:23;10.90;49.90
27266;DHT22;14766;51.380;13.762;2023-12-28T02:35:57;10.90;49.90
27266;DHT22;14766;51.380;13.762;2023-12-28T02:38:28;10.90;49.90
27266;DHT22;14766;51.380;13.762;2023-12-28T02:40:57;10.90;49.80
27266;DHT22;14766;51.380;13.762;2023-12-28T02:43:25;10.90;49.50
27266;DHT22;14766;51.380;13.762;2023-12-28T02:45:52;10.90;49.50
27266;DHT22;14766;51.380;13.762;2023-12-28T02:48:20;10.90;49.50
27266;DHT22;14766;51.380;13.762;2023-12-28T02:50:48;10.90;49.50
27266;DHT22;14766;51.380;13.762;2023-12-28T02:53:16;10.90;49.50
27266;DHT22;14766;51.380;13.762;2023-12-28T02:55:43;10.90;49.30
27266;DHT22;14766;51.380;13.762;2023-12-28T02:58:10;10.90;49.40
27266;DHT22;14766;51.380;13.762;2023-12-28T03:00:37;10.90;48.80
27266;DHT22;14766;51.380;13.762;2023-12-28T03:03:04;10.90;48.80
27266;DHT22;14766;51.380;13.762;2023-12-28T03:05:31;10.90;48.70
27266;DHT22;14766;51.380;13.762;2023-12-28T03:07:59;11.00;48.30
27266;DHT22;14766;51.380;13.762;2023-12-28T03:10:27;11.00;48.30
27266;DHT22;14766;51.380;13.762;2023-12-28T03:12:54;11.10;48.40
27266;DHT22;14766;51.380;13.762;2023-12-28T03:15:22;11.10;47.90
27266;DHT22;14766;51.380;13.762;2023-12-28T03:17:49;11.20;47.10
27266;DHT22;14766;51.380;13.762;2023-12-28T03:20:16;11.30;47.00
27266;DHT22;14766;51.380;13.762;2023-12-28T03:22:44;11.30;47.00
27266;DHT22;14766;51.380;13.762;2023-12-28T03:25:11;11.40;46.70
27266;DHT22;14766;51.380;13.762;2023-12-28T03:27:39;11.50;46.50
27266;DHT22;14766;51.380;13.762;2023-12-28T03:30:08;11.60;46.30
27266;DHT22;14766;51.380;13.762;2023-12-28T03:32:35;11.60;45.90
27266;DHT22;14766;51.380;13.762;2023-12-28T03:35:04;11.70;45.90
27266;DHT22;14766;51.380;13.762;2023-12-28T03:37:31;11.80;46.10
27266;DHT22;14766;51.380;13.762;2023-12-28T03:39:58;11.90;45.80
27266;DHT22;14766;51.380;13.762;2023-12-28T03:42:27;11.90;45.80
27266;DHT22;14766;51.380;13.762;2023-12-28T03:44:56;11.90;45.60
27266;DHT22;14766;51.380;13.762;2023-12-28T03:47:23;12.00;45.50
27266;DHT22;14766;51.380;13.762;2023-12-28T03:49:51;12.00;46.00
27266;DHT22;14766;51.380;13.762;2023-12-28T03:52:18;12.00;45.60
27266;DHT22;14766;51.380;13.762;2023-12-28T03:54:45;12.00;45.50
27266;DHT22;14766;51.380;13.762;2023-12-28T03:57:12;12.10;46.50
27266;DHT22;14766;51.380;13.762;2023-12-28T03:59:40;12.10;45.70
27266;DHT22;14766;51.380;13.762;2023-12-28T04:02:08;12.10;45.50
27266;DHT22;14766;51.380;13.762;2023-12-28T04:04:35;12.10;45.90
27266;DHT22;14766;51.380;13.762;2023-12-28T04:07:03;12.20;45.70
27266;DHT22;14766;51.380;13.762;2023-12-28T04:09:34;12.20;45.50
27266;DHT22;14766;51.380;13.762;2023-12-28T04:12:01;12.20;45.30
27266;DHT22;14766;51.380;13.762;2023-12-28T04:14:28;12.20;45.30
27266;DHT22;14766;51.380;13.762;2023-12-28T04:16:55;12.30;45.00
27266;DHT22;14766;51.380;13.762;2023-12-28T04:19:22;12.30;44.90
27266;DHT22;14766;51.380;13.762;2023-12-28T04:21:49;12.30;45.10
27266;DHT22;14766;51.380;13.762;2023-12-28T04:24:17;12.40;44.70
27266;DHT22;14766;51.380;13.762;2023-12-28T04:26:44;12.40;44.80
27266;DHT22;14766;51.380;13.762;2023-12-28T04:29:11;12.40;44.80
27266;DHT22;14766;51.380;13.762;2023-12-28T04:31:42;12.50;44.90
27266;DHT22;14766;51.380;13.762;2023-12-28T04:34:09;12.50;44.90
27266;DHT22;14766;51.380;13.762;2023-12-28T04:36:42;12.50;45.00
27266;DHT22;14766;51.380;13.762;2023-12-28T04:39:12;12.50;45.20
27266;DHT22;14766;51.380;13.762;2023-12-28T04:41:40;12.60;44.90
27266;DHT22;14766;51.380;13.762;2023-12-28T04:44:07;12.50;44.50
27266;DHT22;14766;51.380;13.762;2023-12-28T04:46:38;12.60;45.20
27266;DHT22;14766;51.380;13.762;2023-12-28T04:49:10;12.60;45.30
27266;DHT22;14766;51.380;13.762;2023-12-28T04:51:42;12.60;46.60
27266;DHT22;14766;51.380;13.762;2023-12-28T04:54:10;12.70;48.10
27266;DHT22;14766;51.380;13.762;2023-12-28T04:56:37;12.70;48.50
27266;DHT22;14766;51.380;13.762;2023-12-28T04:59:04;12.60;48.60
27266;DHT22;14766;51.380;13.762;2023-12-28T05:01:31;12.60;48.50
27266;DHT22;14766;51.380;13.762;2023-12-28T05:04:25;12.60;48.90
27266;DHT22;14766;51.380;13.762;2023-12-28T05:06:52;12.60;49.80
27266;DHT22;14766;51.380;13.762;2023-12-28T05:09:19;12.60;50.30
27266;DHT22;14766;51.380;13.762;2023-12-28T05:11:46;12.60;51.00
27266;DHT22;14766;51.380;13.762;2023-12-28T05:14:13;12.60;51.10
27266;DHT22;14766;51.380;13.762;2023-12-28T05:16:40;12.50;51.20
27266;DHT22;14766;51.380;13.762;2023-12-28T05:19:08;12.50;51.40
27266;DHT22;14766;51.380;13.762;2023-12-28T05:21:36;12.50;51.60
27266;DHT22;14766;51.380;13.762;2023-12-28T05:24:03;12.50;51.30
27266;DHT22;14766;51.380;13.762;2023-12-28T05:26:31;12.50;51.60
27266;DHT22;14766;51.380;13.762;2023-12-28T05:28:58;12.50;51.60
27266;DHT22;14766;51.380;13.762;2023-12-28T05:31:26;12.40;51.60
27266;DHT22;14766;51.380;13.762;2023-12-28T05:33:53;12.40;51.70
27266;DHT22;14766;51.380;13.762;2023-12-28T05:36:20;12.40;52.00
27266;DHT22;14766;51.380;13.762;2023-12-28T05:38:47;12.40;52.20
27266;DHT22;14766;51.380;13.762;2023-12-28T05:41:14;12.40;52.60
27266;DHT22;14766;51.380;13.762;2023-12-28T05:43:42;12.40;52.70
27266;DHT22;14766;51.380;13.762;2023-12-28T05:46:09;12.40;52.50
27266;DHT22;14766;51.380;13.762;2023-12-28T05:48:36;12.40;52.70
27266;DHT22;14766;51.380;13.762;2023-12-28T05:51:04;12.40;52.50
27266;DHT22;14766;51.380;13.762;2023-12-28T05:53:31;12.30;52.10
27266;DHT22;14766;51.380;13.762;2023-12-28T05:55:58;12.30;52.20
27266;DHT22;14766;51.380;13.762;2023-12-28T05:58:30;12.30;51.90
27266;DHT22;14766;51.380;13.762;2023-12-28T06:00:57;12.30;52.00
27266;DHT22;14766;51.380;13.762;2023-12-28T06:03:24;12.40;51.80
27266;DHT22;14766;51.380;13.762;2023-12-28T06:05:55;12.40;52.00
27266;DHT22;14766;51.380;13.762;2023-12-28T06:08:22;12.40;51.80
27266;DHT22;14766;51.380;13.762;2023-12-28T06:10:53;12.40;51.70
27266;DHT22;14766;51.380;13.762;2023-12-28T06:13:20;12.40;51.50
27266;DHT22;14766;51.380;13.762;2023-12-28T06:15:47;12.50;51.30
27266;DHT22;14766;51.380;13.762;2023-12-28T06:18:15;12.50;51.30
27266;DHT22;14766;51.380;13.762;2023-12-28T06:20:42;12.50;51.30
27266;DHT22;14766;51.380;13.762;2023-12-28T06:23:09;12.60;51.10
27266;DHT22;14766;51.380;13.762;2023-12-28T06:25:36;12.60;51.10
27266;DHT22;14766;51.380;13.762;2023-12-28T06:28:03;12.60;51.00
27266;DHT22;14766;51.380;13.762;2023-12-28T06:30:30;12.70;51.10
27266;DHT22;14766;51.380;13.762;2023-12-28T06:32:57;12.60;50.50
27266;DHT22;14766;51.380;13.762;2023-12-28T06:35:25;12.70;50.90
27266;DHT22;14766;51.380;13.762;2023-12-28T06:37:52;12.70;51.10
27266;DHT22;14766;51.380;13.762;2023-12-28T06:40:19;12.70;51.40
27266;DHT22;14766;51.380;13.762;2023-12-28T06:42:46;12.70;51.10
27266;DHT22;14766;51.380;13.762;2023-12-28T06:45:14;12.70;50.90
27266;DHT22;14766;51.380;13.762;2023-12-28T06:47:42;12.70;51.00
27266;DHT22;14766;51.380;13.762;2023-12-28T06:50:09;12.70;51.20
27266;DHT22;14766;51.380;13.762;2023-12-28T06:52:36;12.70;51.20
27266;DHT22;14766;51.380;13.762;2023-12-28T06:55:03;12.70;51.40
27266;DHT22;14766;51.380;13.762;2023-12-28T06:57:31;12.70;51.60
27266;DHT22;14766;51.380;13.762;2023-12-28T06:59:58;12.70;51.70
27266;DHT22;14766;51.380;13.762;2023-12-28T07:02:28;12.70;51.70
27266;DHT22;14766;51.380;13.762;2023-12-28T07:04:55;12.70;51.70
27266;DHT22;14766;51.380;13.762;2023-12-28T07:07:22;12.70;52.00
27266;DHT22;14766;51.380;13.762;2023-12-28T07:09:50;12.70;52.00
27266;DHT22;14766;51.380;13.762;2023-12-28T07:12:18;12.60;52.10
27266;DHT22;14766;51.380;13.762;2023-12-28T07:15:13;12.60;52.30
27266;DHT22;14766;51.380;13.762;2023-12-28T07:17:42;12.60;52.60
27266;DHT22;14766;51.380;13.762;2023-12-28T07:20:12;12.60;52.90
27266;DHT22;14766;51.380;13.762;2023-12-28T07:22:39;12.60;53.10
27266;DHT22;14766;51.380;13.762;2023-12-28T07:25:06;12.60;53.20
27266;DHT22;14766;51.380;13.762;2023-12-28T07:27:36;12.60;53.40
27266;DHT22;14766;51.380;13.762;2023-12-28T07:30:04;12.60;53.60
27266;DHT22;14766;51.380;13.762;2023-12-28T07:32:31;12.60;53.80
27266;DHT22;14766;51.380;13.762;2023-12-28T07:34:59;12.60;54.00
27266;DHT22;14766;51.380;13.762;2023-12-28T07:37:26;12.60;54.10
27266;DHT22;14766;51.380;13.762;2023-12-28T07:39:54;12.60;54.20
27266;DHT22;14766;51.380;13.762;2023-12-28T07:42:22;12.50;54.50
27266;DHT22;14766;51.380;13.762;2023-12-28T07:44:49;12.60;54.50
27266;DHT22;14766;51.380;13.762;2023-12-28T07:47:16;12.50;54.50
27266;DHT22;14766;51.380;13.762;2023-12-28T07:49:43;12.60;54.50
27266;DHT22;14766;51.380;13.762;2023-12-28T07:52:10;12.60;54.40
27266;DHT22;14766;51.380;13.762;2023-12-28T07:54:44;12.50;54.50
27266;DHT22;14766;51.380;13.762;2023-12-28T07:57:11;12.60;54.50
27266;DHT22;14766;51.380;13.762;2023-12-28T07:59:38;12.60;54.40
27266;DHT22;14766;51.380;13.762;2023-12-28T08:02:06;12.60;54.40
27266;DHT22;14766;51.380;13.762;2023-12-28T08:04:33;12.60;54.30
27266;DHT22;14766;51.380;13.762;2023-12-28T08:07:00;12.50;54.20
27266;DHT22;14766;51.380;13.762;2023-12-28T08:09:27;12.50;54.00
27266;DHT22;14766;51.380;13.762;2023-12-28T08:11:55;12.50;54.00
27266;DHT22;14766;51.380;13.762;2023-12-28T08:14:22;12.50;54.20
27266;DHT22;14766;51.380;13.762;2023-12-28T08:16:49;12.50;54.00
27266;DHT22;14766;51.380;13.762;2023-12-28T08:19:16;12.50;53.80
27266;DHT22;14766;51.380;13.762;2023-12-28T08:21:43;12.50;53.80
27266;DHT22;14766;51.380;13.762;2023-12-28T08:24:11;12.50;53.90
27266;DHT22;14766;51.380;13.762;2023-12-28T08:26:38;12.50;54.10
27266;DHT22;14766;51.380;13.762;2023-12-28T08:29:07;12.50;54.20
27266;DHT22;14766;51.380;13.762;2023-12-28T08:31:35;12.50;54.30
27266;DHT22;14766;51.380;13.762;2023-12-28T08:34:02;12.50;54.40
27266;DHT22;14766;51.380;13.762;2023-12-28T08:36:29;12.50;54.40
27266;DHT22;14766;51.380;13.762;2023-12-28T08:38:56;12.50;54.60
27266;DHT22;14766;51.380;13.762;2023-12-28T08:41:24;12.40;54.70
27266;DHT22;14766;51.380;13.762;2023-12-28T08:43:51;12.50;55.20
27266;DHT22;14766;51.380;13.762;2023-12-28T08:46:18;12.50;54.90
27266;DHT22;14766;51.380;13.762;2023-12-28T08:48:46;12.50;55.00
27266;DHT22;14766;51.380;13.762;2023-12-28T08:51:14;12.50;55.10
27266;DHT22;14766;51.380;13.762;2023-12-28T08:53:41;12.50;55.20
27266;DHT22;14766;51.380;13.762;2023-12-28T08:56:22;12.50;55.20
27266;DHT22;14766;51.380;13.762;2023-12-28T08:58:50;12.50;55.20
27266;DHT22;14766;51.380;13.762;2023-12-28T09:01:20;12.50;55.20
27266;DHT22;14766;51.380;13.762;2023-12-28T09:03:53;12.50;55.30
27266;DHT22;14766;51.380;13.762;2023-12-28T09:06:23;12.50;55.30
27266;DHT22;14766;51.380;13.762;2023-12-28T09:08:52;12.60;55.30
27266;DHT22;14766;51.380;13.762;2023-12-28T09:11:19;12.60;55.30
27266;DHT22;14766;51.380;13.762;2023-12-28T09:13:46;12.60;55.30
27266;DHT22;14766;51.380;13.762;2023-12-28T09:16:14;12.60;55.50
27266;DHT22;14766;51.380;13.762;2023-12-28T09:18:42;12.60;55.50
27266;DHT22;14766;51.380;13.762;2023-12-28T09:21:10;12.60;55.50
27266;DHT22;14766;51.380;13.762;2023-12-28T09:23:38;12.60;55.50
27266;DHT22;14766;51.380;13.762;2023-12-28T09:26:05;12.60;55.80
27266;DHT22;14766;51.380;13.762;2023-12-28T09:28:33;12.70;55.90
27266;DHT22;14766;51.380;13.762;2023-12-28T09:31:04;12.70;56.00
27266;DHT22;14766;51.380;13.762;2023-12-28T09:33:31;12.60;56.20
27266;DHT22;14766;51.380;13.762;2023-12-28T09:35:58;12.60;56.30
27266;DHT22;14766;51.380;13.762;2023-12-28T09:38:26;12.60;56.50
27266;DHT22;14766;51.380;13.762;2023-12-28T09:40:55;12.60;56.60
27266;DHT22;14766;51.380;13.762;2023-12-28T09:43:26;12.60;56.90
27266;DHT22;14766;51.380;13.762;2023-12-28T09:45:57;12.60;57.00
27266;DHT22;14766;51.380;13.762;2023-12-28T09:48:24;12.50;57.10
27266;DHT22;14766;51.380;13.762;2023-12-28T09:50:52;12.50;57.30
27266;DHT22;14766;51.380;13.762;2023-12-28T09:53:25;12.50;57.20
27266;DHT22;14766;51.380;13.762;2023-12-28T09:55:53;12.50;57.30
27266;DHT22;14766;51.380;13.762;2023-12-28T09:58:21;12.50;57.30
27266;DHT22;14766;51.380;13.762;2023-12-28T10:00:50;12.50;57.30
27266;DHT22;14766;51.380;13.762;2023-12-28T10:03:19;12.60;57.40
27266;DHT22;14766;51.380;13.762;2023-12-28T10:05:46;12.50;57.60
27266;DHT22;14766;51.380;13.762;2023-12-28T10:08:15;12.60;57.60
27266;DHT22;14766;51.380;13.762;2023-12-28T10:10:44;12.50;57.80
27266;DHT22;14766;51.380;13.762;2023-12-28T10:13:18;12.50;57.70
27266;DHT22;14766;51.380;13.762;2023-12-28T10:15:45;12.60;57.80
27266;DHT22;14766;51.380;13.762;2023-12-28T10:18:12;12.60;57.90
27266;DHT22;14766;51.380;13.762;2023-12-28T10:20:43;12.60;57.90
27266;DHT22;14766;51.380;13.762;2023-12-28T10:23:14;12.60;58.20
27266;DHT22;14766;51.380;13.762;2023-12-28T10:25:42;12.60;58.40
27266;DHT22;14766;51.380;13.762;2023-12-28T10:28:10;12.60;58.00
27266;DHT22;14766;51.380;13.762;2023-12-28T10:30:39;12.60;58.20
27266;DHT22;14766;51.380;13.762;2023-12-28T10:33:09;12.60;58.30
27266;DHT22;14766;51.380;13.762;2023-12-28T10:35:37;12.60;58.30
27266;DHT22;14766;51.380;13.762;2023-12-28T10:38:04;12.60;58.50
27266;DHT22;14766;51.380;13.762;2023-12-28T10:40:34;12.60;58.40
27266;DHT22;14766;51.380;13.762;2023-12-28T10:43:07;12.60;58.60
27266;DHT22;14766;51.380;13.762;2023-12-28T10:45:37;12.60;58.70
27266;DHT22;14766;51.380;13.762;2023-12-28T10:48:07;12.60;58.70
27266;DHT22;14766;51.380;13.762;2023-12-28T10:50:43;12.60;58.90
27266;DHT22;14766;51.380;13.762;2023-12-28T10:58:47;12.60;58.90
27266;DHT22;14766;51.380;13.762;2023-12-28T11:01:21;12.60;59.00
27266;DHT22;14766;51.380;13.762;2023-12-28T11:04:23;12.70;59.40
27266;DHT22;14766;51.380;13.762;2023-12-28T11:06:49;12.70;58.90
27266;DHT22;14766;51.380;13.762;2023-12-28T11:09:17;12.70;59.00
27266;DHT22;14766;51.380;13.762;2023-12-28T11:11:46;12.70;58.80
27266;DHT22;14766;51.380;13.762;2023-12-28T11:14:14;12.70;58.80
27266;DHT22;14766;51.380;13.762;2023-12-28T11:16:43;12.70;58.70
27266;DHT22;14766;51.380;13.762;2023-12-28T11:19:11;12.70;58.80
27266;DHT22;14766;51.380;13.762;2023-12-28T11:21:39;12.70;58.80
27266;DHT22;14766;51.380;13.762;2023-12-28T11:24:06;12.70;58.90
27266;DHT22;14766;51.380;13.762;2023-12-28T11:26:34;12.70;58.80
27266;DHT22;14766;51.380;13.762;2023-12-28T11:29:04;12.70;58.70
27266;DHT22;14766;51.380;13.762;2023-12-28T11:31:35;12.70;58.60
27266;DHT22;14766;51.380;13.762;2023-12-28T11:34:04;12.80;58.80
27266;DHT22;14766;51.380;13.762;2023-12-28T11:36:44;12.80;58.60
27266;DHT22;14766;51.380;13.762;2023-12-28T11:39:29;12.80;58.70
27266;DHT22;14766;51.380;13.762;2023-12-28T11:42:02;12.90;58.80
27266;DHT22;14766;51.380;13.762;2023-12-28T11:44:37;13.00;58.80
27266;DHT22;14766;51.380;13.762;2023-12-28T11:49:43;13.20;58.90
27266;DHT22;14766;51.380;13.762;2023-12-28T11:52:29;13.40;58.70
27266;DHT22;14766;51.380;13.762;2023-12-28T11:54:58;13.60;58.40
27266;DHT22;14766;51.380;13.762;2023-12-28T11:57:27;13.80;57.70
27266;DHT22;14766;51.380;13.762;2023-12-28T11:59:58;14.00;56.80
27266;DHT22;14766;51.380;13.762;2023-12-28T12:02:26;14.20;56.10
27266;DHT22;14766;51.380;13.762;2023-12-28T12:04:54;14.30;55.70
27266;DHT22;14766;51.380;13.762;2023-12-28T12:07:24;14.40;55.60
27266;DHT22;14766;51.380;13.762;2023-12-28T12:09:59;14.50;55.70
27266;DHT22;14766;51.380;13.762;2023-12-28T12:12:27;14.60;55.80
27266;DHT22;14766;51.380;13.762;2023-12-28T12:14:54;14.70;55.40
27266;DHT22;14766;51.380;13.762;2023-12-28T12:17:23;14.70;54.40
27266;DHT22;14766;51.380;13.762;2023-12-28T12:19:52;14.80;54.30
27266;DHT22;14766;51.380;13.762;2023-12-28T12:22:22;14.80;54.20
27266;DHT22;14766;51.380;13.762;2023-12-28T12:24:56;14.80;54.00
27266;DHT22;14766;51.380;13.762;2023-12-28T12:27:25;14.70;53.60
27266;DHT22;14766;51.380;13.762;2023-12-28T12:29:52;14.70;53.80
27266;DHT22;14766;51.380;13.762;2023-12-28T12:32:19;14.60;53.70
27266;DHT22;14766;51.380;13.762;2023-12-28T12:34:46;14.50;53.80
27266;DHT22;14766;51.380;13.762;2023-12-28T12:37:14;14.50;54.00
27266;DHT22;14766;51.380;13.762;2023-12-28T12:39:41;14.40;54.30
27266;DHT22;14766;51.380;13.762;2023-12-28T12:42:15;14.40;54.40
27266;DHT22;14766;51.380;13.762;2023-12-28T12:44:43;14.40;54.80
27266;DHT22;14766;51.380;13.762;2023-12-28T12:47:10;14.40;54.70
27266;DHT22;14766;51.380;13.762;2023-12-28T12:49:37;14.30;55.00
27266;DHT22;14766;51.380;13.762;2023-12-28T12:52:06;14.30;54.70
27266;DHT22;14766;51.380;13.762;2023-12-28T12:54:34;14.30;54.80
27266;DHT22;14766;51.380;13.762;2023-12-28T12:57:01;14.20;54.50
27266;DHT22;14766;51.380;13.762;2023-12-28T12:59:29;14.20;54.80
27266;DHT22;14766;51.380;13.762;2023-12-28T13:01:58;14.10;55.00
27266;DHT22;14766;51.380;13.762;2023-12-28T13:04:26;14.10;55.20
27266;DHT22;14766;51.380;13.762;2023-12-28T13:06:55;14.00;55.20
27266;DHT22;14766;51.380;13.762;2023-12-28T13:09:24;14.00;55.20
27266;DHT22;14766;51.380;13.762;2023-12-28T13:11:51;13.90;55.40
27266;DHT22;14766;51.380;13.762;2023-12-28T13:14:19;13.90;55.50
27266;DHT22;14766;51.380;13.762;2023-12-28T13:16:48;13.80;56.30
27266;DHT22;14766;51.380;13.762;2023-12-28T13:19:24;13.80;55.60
27266;DHT22;14766;51.380;13.762;2023-12-28T13:21:52;13.70;55.80
27266;DHT22;14766;51.380;13.762;2023-12-28T13:24:20;13.70;56.00
27266;DHT22;14766;51.380;13.762;2023-12-28T13:26:47;13.60;56.00
27266;DHT22;14766;51.380;13.762;2023-12-28T13:29:14;13.60;56.10
27266;DHT22;14766;51.380;13.762;2023-12-28T13:31:42;13.60;56.20
27266;DHT22;14766;51.380;13.762;2023-12-28T13:34:12;13.60;56.40
27266;DHT22;14766;51.380;13.762;2023-12-28T13:36:39;13.50;56.40
27266;DHT22;14766;51.380;13.762;2023-12-28T13:39:06;13.50;56.50
27266;DHT22;14766;51.380;13.762;2023-12-28T13:41:36;13.50;56.50
27266;DHT22;14766;51.380;13.762;2023-12-28T13:44:03;13.50;56.70
27266;DHT22;14766;51.380;13.762;2023-12-28T13:46:31;13.40;56.60
27266;DHT22;14766;51.380;13.762;2023-12-28T13:48:58;13.40;56.80
27266;DHT22;14766;51.380;13.762;2023-12-28T13:51:25;13.40;56.90
27266;DHT22;14766;51.380;13.762;2023-12-28T13:53:55;13.40;56.90
27266;DHT22;14766;51.380;13.762;2023-12-28T13:56:22;13.40;57.00
27266;DHT22;14766;51.380;13.762;2023-12-28T13:58:49;13.40;57.10
27266;DHT22;14766;51.380;13.762;2023-12-28T14:01:16;13.30;57.00
27266;DHT22;14766;51.380;13.762;2023-12-28T14:03:44;13.30;57.10
27266;DHT22;14766;51.380;13.762;2023-12-28T14:06:12;13.30;57.20
27266;DHT22;14766;51.380;13.762;2023-12-28T14:08:39;13.30;57.40
27266;DHT22;14766;51.380;13.762;2023-12-28T14:11:07;13.30;57.50
27266;DHT22;14766;51.380;13.762;2023-12-28T14:13:36;13.30;57.60
27266;DHT22;14766;51.380;13.762;2023-12-28T14:16:04;13.20;57.70
27266;DHT22;14766;51.380;13.762;2023-12-28T14:18:32;13.20;57.70
27266;DHT22;14766;51.380;13.762;2023-12-28T14:21:00;13.10;57.80
27266;DHT22;14766;51.380;13.762;2023-12-28T14:23:27;13.20;58.00
27266;DHT22;14766;51.380;13.762;2023-12-28T14:25:55;13.10;58.00
27266;DHT22;14766;51.380;13.762;2023-12-28T14:28:23;13.10;58.20
27266;DHT22;14766;51.380;13.762;2023-12-28T14:30:56;13.00;58.00
27266;DHT22;14766;51.380;13.762;2023-12-28T14:33:24;13.00;58.30
27266;DHT22;14766;51.380;13.762;2023-12-28T14:35:54;13.00;58.30
27266;DHT22;14766;51.380;13.762;2023-12-28T14:38:21;13.00;58.20
27266;DHT22;14766;51.380;13.762;2023-12-28T14:40:48;13.00;58.20
27266;DHT22;14766;51.380;13.762;2023-12-28T14:43:18;13.00;58.40
27266;DHT22;14766;51.380;13.762;2023-12-28T14:45:45;12.90;58.30
27266;DHT22;14766;51.380;13.762;2023-12-28T14:48:13;12.90;58.40
27266;DHT22;14766;51.380;13.762;2023-12-28T14:50:41;12.90;58.40
27266;DHT22;14766;51.380;13.762;2023-12-28T14:53:08;12.80;58.40
27266;DHT22;14766;51.380;13.762;2023-12-28T14:55:38;12.80;58.40
27266;DHT22;14766;51.380;13.762;2023-12-28T14:58:05;12.80;58.30
27266;DHT22;14766;51.380;13.762;2023-12-28T15:00:32;12.80;58.30
27266;DHT22;14766;51.380;13.762;2023-12-28T15:02:59;12.70;58.30
27266;DHT22;14766;51.380;13.762;2023-12-28T15:05:26;12.70;58.30
27266;DHT22;14766;51.380;13.762;2023-12-28T15:07:56;12.70;58.30
27266;DHT22;14766;51.380;13.762;2023-12-28T15:10:23;12.60;58.30
27266;DHT22;14766;51.380;13.762;2023-12-28T15:12:52;12.60;58.90
27266;DHT22;14766;51.380;13.762;2023-12-28T15:15:20;12.60;59.00
27266;DHT22;14766;51.380;13.762;2023-12-28T15:17:48;12.60;59.10
27266;DHT22;14766;51.380;13.762;2023-12-28T15:20:15;12.50;59.30
27266;DHT22;14766;51.380;13.762;2023-12-28T15:22:43;12.40;59.80
27266;DHT22;14766;51.380;13.762;2023-12-28T15:25:10;12.40;60.00
27266;DHT22;14766;51.380;13.762;2023-12-28T15:27:37;12.30;60.10
27266;DHT22;14766;51.380;13.762;2023-12-28T15:30:06;12.30;60.10
27266;DHT22;14766;51.380;13.762;2023-12-28T15:32:34;12.30;60.60
27266;DHT22;14766;51.380;13.762;2023-12-28T15:35:02;12.30;60.60